Time;durP1;ratioP1;P1;durP2;ratioP2;P2;SDS_P1;SDS_P2;PMS_P1;PMS_P2;Temp;Humidity;BMP_temperature;BMP_pressure;BME280_temperature;BME280_humidity;BME280_pressure;Samples;Min_cycle;Max_cycle;Signal;HPM_P1;HPM_P2
2021/12/02 00:01:17;;;;;;;3.67;1.30;;;;;;;;;;4992011;28;20038;-54
2021/12/02 00:03:44;;;;;;;4.55;1.60;;;;;;;;;;5008374;28;20045;-56
2021/12/02 00:06:11;;;;;;;5.68;3.03;;;;;;;;;;5008495;28;20039;-55
2021/12/02 00:08:37;;;;;;;3.63;1.40;;;;;;;;;;5008476;28;20827;-54
2021/12/02 00:11:04;;;;;;;4.43;1.30;;;;;;;;;;5009355;28;20045;-53
2021/12/02 00:13:36;;;;;;;7.05;1.50;;;;;;;;;;5008319;28;20065;-53
2021/12/02 00:21:36;;;;;;;2.67;0.98;;;;;;;;;;5006798;28;20053;-55
2021/12/02 00:24:04;;;;;;;3.13;1.02;;;;;;;;;;5010604;28;20040;-57
2021/12/02 00:26:31;;;;;;;3.28;1.17;;;;;;;;;;5007548;28;20395;-56
2021/12/02 00:28:59;;;;;;;2.65;1.10;;;;;;;;;;5009008;28;20691;-54
2021/12/02 00:31:29;;;;;;;3.83;1.60;;;;;;;;;;4989599;28;20042;-57
2021/12/02 00:33:57;;;;;;;5.03;2.05;;;;;;;;;;5008060;28;20100;-55
2021/12/02 00:36:24;;;;;;;4.25;1.80;;;;;;;;;;5007293;28;20156;-54
2021/12/02 00:38:51;;;;;;;4.95;1.98;;;;;;;;;;5008318;28;20049;-52
2021/12/02 00:41:18;;;;;;;3.60;1.52;;;;;;;;;;5009559;28;20041;-54
2021/12/02 00:43:46;;;;;;;3.50;1.58;;;;;;;;;;5008889;28;20053;-55
2021/12/02 00:46:14;;;;;;;4.28;1.40;;;;;;;;;;5007976;28;20091;-55
2021/12/02 00:48:41;;;;;;;3.95;1.17;;;;;;;;;;5008087;28;20029;-54
2021/12/02 00:51:09;;;;;;;3.15;1.05;;;;;;;;;;5008505;28;20380;-55
2021/12/02 00:53:36;;;;;;;2.88;1.05;;;;;;;;;;5008124;28;20065;-55
2021/12/02 00:56:03;;;;;;;2.40;1.00;;;;;;;;;;5009442;28;20482;-55
2021/12/02 00:58:32;;;;;;;2.35;0.80;;;;;;;;;;5008195;28;20045;-56
2021/12/02 01:00:59;;;;;;;2.25;0.73;;;;;;;;;;5002077;28;20421;-54
2021/12/02 01:03:34;;;;;;;3.05;0.80;;;;;;;;;;5009020;28;20149;-51
2021/12/02 01:06:01;;;;;;;2.97;0.90;;;;;;;;;;5008592;28;20042;-53
2021/12/02 01:08:28;;;;;;;4.50;0.88;;;;;;;;;;5009281;28;20089;-52
2021/12/02 01:10:54;;;;;;;1.65;0.60;;;;;;;;;;5009517;28;20129;-55
2021/12/02 01:13:20;;;;;;;2.67;0.85;;;;;;;;;;5010275;28;20042;-51
2021/12/02 01:15:46;;;;;;;6.15;1.08;;;;;;;;;;5009111;28;20037;-55
2021/12/02 01:18:12;;;;;;;3.17;0.88;;;;;;;;;;5009440;28;20103;-56
2021/12/02 01:20:39;;;;;;;4.45;0.90;;;;;;;;;;5008512;28;20410;-53
2021/12/02 01:23:05;;;;;;;2.75;0.90;;;;;;;;;;5010383;28;20502;-57
2021/12/02 01:25:31;;;;;;;2.65;1.00;;;;;;;;;;5007968;28;20045;-56
2021/12/02 01:27:57;;;;;;;3.35;0.93;;;;;;;;;;5007375;28;20057;-56
2021/12/02 01:30:28;;;;;;;6.28;1.00;;;;;;;;;;5006895;28;20056;-56
2021/12/02 01:33:00;;;;;;;3.45;1.45;;;;;;;;;;5008844;28;20087;-53
2021/12/02 01:35:27;;;;;;;4.20;1.77;;;;;;;;;;5007275;28;20048;-57
2021/12/02 01:37:53;;;;;;;5.78;2.30;;;;;;;;;;5006587;28;20115;-57
2021/12/02 01:40:19;;;;;;;5.90;3.03;;;;;;;;;;5007519;28;21044;-57
2021/12/02 01:42:46;;;;;;;6.10;2.85;;;;;;;;;;5006742;28;20041;-57
2021/12/02 01:45:15;;;;;;;5.72;3.08;;;;;;;;;;5008260;28;20060;-58
2021/12/02 01:47:46;;;;;;;7.60;3.65;;;;;;;;;;5006135;28;20037;-56
2021/12/02 01:50:14;;;;;;;8.75;4.32;;;;;;;;;;5008045;28;20029;-56
2021/12/02 01:52:43;;;;;;;11.23;5.43;;;;;;;;;;5007366;28;20053;-55
2021/12/02 01:55:11;;;;;;;9.25;4.60;;;;;;;;;;5006976;28;20149;-56
2021/12/02 01:57:43;;;;;;;8.90;4.80;;;;;;;;;;5006402;28;21077;-57
2021/12/02 02:00:09;;;;;;;7.65;4.40;;;;;;;;;;5007382;28;20567;-58
2021/12/02 02:02:36;;;;;;;8.20;4.93;;;;;;;;;;5007789;28;20053;-57
2021/12/02 02:05:06;;;;;;;13.05;5.40;;;;;;;;;;5007756;28;20461;-57
2021/12/02 02:07:33;;;;;;;10.13;5.53;;;;;;;;;;5005733;28;20045;-58
2021/12/02 02:10:03;;;;;;;9.43;5.18;;;;;;;;;;5005913;28;20046;-59
2021/12/02 02:12:29;;;;;;;8.43;4.88;;;;;;;;;;5005797;28;20054;-57
2021/12/02 02:14:55;;;;;;;9.90;5.60;;;;;;;;;;5007743;28;20057;-57
2021/12/02 02:17:27;;;;;;;8.23;4.95;;;;;;;;;;5005540;28;20049;-57
2021/12/02 02:19:54;;;;;;;9.10;4.93;;;;;;;;;;5006023;28;20148;-57
2021/12/02 02:22:22;;;;;;;9.40;5.32;;;;;;;;;;5006846;28;20040;-57
2021/12/02 02:24:49;;;;;;;9.32;4.43;;;;;;;;;;5007612;28;20045;-55
2021/12/02 02:27:15;;;;;;;7.30;3.92;;;;;;;;;;5005968;28;20060;-56
2021/12/02 02:29:41;;;;;;;8.43;4.15;;;;;;;;;;5008255;28;20120;-55
2021/12/02 02:32:07;;;;;;;9.38;4.95;;;;;;;;;;5010798;28;20053;-57
2021/12/02 02:34:33;;;;;;;10.45;5.32;;;;;;;;;;5010490;28;20045;-56
2021/12/02 02:37:03;;;;;;;9.75;5.13;;;;;;;;;;5010681;28;20069;-55
2021/12/02 02:39:30;;;;;;;9.05;5.35;;;;;;;;;;5010530;28;20196;-56
2021/12/02 02:41:59;;;;;;;9.15;4.75;;;;;;;;;;5011378;28;20059;-56
2021/12/02 02:44:25;;;;;;;9.23;5.18;;;;;;;;;;5010092;28;20191;-56
2021/12/02 02:46:52;;;;;;;11.27;5.90;;;;;;;;;;5010873;28;20041;-56
2021/12/02 02:49:18;;;;;;;9.93;5.38;;;;;;;;;;5010291;28;20042;-57
2021/12/02 02:51:44;;;;;;;10.60;5.47;;;;;;;;;;5010958;28;20103;-57
2021/12/02 02:54:12;;;;;;;12.15;5.88;;;;;;;;;;5011664;28;20294;-54
2021/12/02 02:56:48;;;;;;;10.90;6.20;;;;;;;;;;5009199;28;20168;-55
2021/12/02 02:59:36;;;;;;;11.90;7.20;;;;;;;;;;5010112;28;20489;-56
2021/12/02 03:07:05;;;;;;;16.85;8.98;;;;;;;;;;4991826;28;20038;-58
2021/12/02 03:12:06;;;;;;;18.15;10.18;;;;;;;;;;5008790;28;20049;-57
2021/12/02 03:17:10;;;;;;;15.88;10.23;;;;;;;;;;5008640;28;20434;-56
2021/12/02 03:19:39;;;;;;;17.88;10.23;;;;;;;;;;5008568;28;20045;-58
2021/12/02 03:22:06;;;;;;;20.92;10.98;;;;;;;;;;5012080;28;20125;-56
2021/12/02 03:24:32;;;;;;;17.02;11.40;;;;;;;;;;5011144;28;20394;-57
2021/12/02 03:26:59;;;;;;;19.27;12.80;;;;;;;;;;5009920;28;20510;-56
2021/12/02 03:29:26;;;;;;;19.10;12.18;;;;;;;;;;5009604;28;20728;-55
2021/12/02 03:31:52;;;;;;;21.98;12.57;;;;;;;;;;5013267;28;20141;-57
2021/12/02 03:34:18;;;;;;;22.63;13.25;;;;;;;;;;5012739;28;20038;-56
2021/12/02 03:36:50;;;;;;;24.55;12.65;;;;;;;;;;5011447;28;20041;-57
2021/12/02 03:39:16;;;;;;;23.48;11.73;;;;;;;;;;5011162;28;20415;-57
2021/12/02 03:41:42;;;;;;;20.40;12.65;;;;;;;;;;5010930;28;20148;-59
2021/12/02 03:44:09;;;;;;;21.90;13.63;;;;;;;;;;5009783;28;20924;-58
2021/12/02 03:46:35;;;;;;;21.45;12.50;;;;;;;;;;5008294;28;20038;-57
2021/12/02 03:49:01;;;;;;;23.00;14.10;;;;;;;;;;5011307;28;20105;-58
2021/12/02 03:51:27;;;;;;;24.58;12.60;;;;;;;;;;5008836;28;20117;-58
2021/12/02 03:53:53;;;;;;;24.85;13.18;;;;;;;;;;5009672;28;20065;-57
2021/12/02 03:56:19;;;;;;;23.17;13.38;;;;;;;;;;5007739;28;20117;-58
2021/12/02 03:58:46;;;;;;;26.13;14.02;;;;;;;;;;5010153;28;20202;-57
2021/12/02 04:01:13;;;;;;;22.63;12.48;;;;;;;;;;5008362;28;20053;-58
2021/12/02 04:03:39;;;;;;;24.50;13.10;;;;;;;;;;5008739;28;20037;-60
2021/12/02 04:06:06;;;;;;;23.02;13.35;;;;;;;;;;5010890;28;20045;-58
2021/12/02 04:08:46;;;;;;;20.38;10.75;;;;;;;;;;5007788;28;20042;-58
2021/12/02 04:16:34;;;;;;;18.65;10.40;;;;;;;;;;5008084;28;20041;-57
2021/12/02 04:19:00;;;;;;;14.50;9.07;;;;;;;;;;5009617;28;20509;-55
2021/12/02 04:21:26;;;;;;;18.15;9.60;;;;;;;;;;4989639;28;20034;-56
2021/12/02 04:23:52;;;;;;;16.60;9.00;;;;;;;;;;5010927;28;20434;-56
2021/12/02 04:26:18;;;;;;;16.60;9.02;;;;;;;;;;5008618;28;20052;-54
2021/12/02 04:28:44;;;;;;;15.43;8.43;;;;;;;;;;5009894;28;20038;-56
2021/12/02 04:31:10;;;;;;;14.95;8.80;;;;;;;;;;5011545;28;20041;-56
2021/12/02 04:33:35;;;;;;;15.13;9.10;;;;;;;;;;5008484;28;20042;-55
2021/12/02 04:36:02;;;;;;;15.82;9.57;;;;;;;;;;5009337;28;20053;-56
2021/12/02 04:38:28;;;;;;;18.70;10.57;;;;;;;;;;5009354;28;20166;-58
2021/12/02 04:40:55;;;;;;;21.05;10.60;;;;;;;;;;5009645;28;20046;-57
2021/12/02 04:43:21;;;;;;;19.58;10.60;;;;;;;;;;5007002;28;20037;-58
2021/12/02 04:45:47;;;;;;;20.55;10.40;;;;;;;;;;5008733;28;20033;-58
2021/12/02 04:48:14;;;;;;;21.45;10.43;;;;;;;;;;5009947;28;20045;-58
2021/12/02 04:50:40;;;;;;;18.02;10.57;;;;;;;;;;5007364;28;20041;-56
2021/12/02 04:53:06;;;;;;;16.27;9.10;;;;;;;;;;5009526;28;20593;-57
2021/12/02 04:55:31;;;;;;;17.95;10.20;;;;;;;;;;5007333;28;20259;-56
2021/12/02 04:57:57;;;;;;;16.75;9.15;;;;;;;;;;5008207;28;20065;-55
2021/12/02 05:00:23;;;;;;;15.77;8.82;;;;;;;;;;5007432;28;20751;-56
2021/12/02 05:02:49;;;;;;;14.50;7.25;;;;;;;;;;5008845;28;20478;-56
2021/12/02 05:05:15;;;;;;;13.25;7.35;;;;;;;;;;5007936;28;20046;-58
2021/12/02 05:07:41;;;;;;;13.38;6.75;;;;;;;;;;5006988;28;20475;-56
2021/12/02 05:10:07;;;;;;;13.07;6.93;;;;;;;;;;5006252;28;20271;-58
2021/12/02 05:12:33;;;;;;;12.10;6.47;;;;;;;;;;5007833;28;20062;-55
2021/12/02 05:14:59;;;;;;;11.73;6.90;;;;;;;;;;5008911;28;20045;-56
2021/12/02 05:17:25;;;;;;;8.20;4.90;;;;;;;;;;5006764;28;20046;-56
2021/12/02 05:19:51;;;;;;;7.93;4.85;;;;;;;;;;5008119;28;20795;-58
2021/12/02 05:22:17;;;;;;;8.20;4.25;;;;;;;;;;5008563;28;20121;-56
2021/12/02 05:24:43;;;;;;;9.45;5.00;;;;;;;;;;5007873;28;20812;-53
2021/12/02 05:27:11;;;;;;;7.18;3.83;;;;;;;;;;5007231;28;20072;-54
2021/12/02 05:29:37;;;;;;;9.80;3.45;;;;;;;;;;5006561;28;20117;-56
2021/12/02 05:32:03;;;;;;;6.80;3.22;;;;;;;;;;5008388;28;20059;-55
2021/12/02 05:34:29;;;;;;;8.65;3.13;;;;;;;;;;4988679;28;20045;-56
2021/12/02 05:36:55;;;;;;;7.00;2.92;;;;;;;;;;5007461;28;20137;-56
2021/12/02 05:39:21;;;;;;;6.28;3.00;;;;;;;;;;5008015;28;20642;-54
2021/12/02 05:41:47;;;;;;;5.35;2.60;;;;;;;;;;5007980;28;20119;-54
2021/12/02 05:44:13;;;;;;;5.53;2.67;;;;;;;;;;5007378;28;20617;-55
2021/12/02 05:46:39;;;;;;;5.05;2.55;;;;;;;;;;5005810;28;20608;-54
2021/12/02 05:49:04;;;;;;;4.82;2.38;;;;;;;;;;5007777;28;20038;-55
2021/12/02 05:51:30;;;;;;;6.82;3.15;;;;;;;;;;5007811;28;20104;-58
2021/12/02 05:53:56;;;;;;;6.22;3.08;;;;;;;;;;5009076;28;20038;-57
2021/12/02 05:56:22;;;;;;;7.60;3.80;;;;;;;;;;5008462;28;20749;-54
2021/12/02 05:58:48;;;;;;;9.45;3.72;;;;;;;;;;5008688;28;20356;-56
2021/12/02 06:01:14;;;;;;;10.38;4.85;;;;;;;;;;5008178;28;20080;-56
2021/12/02 06:03:40;;;;;;;8.15;4.38;;;;;;;;;;5008363;28;20065;-55
2021/12/02 06:06:06;;;;;;;10.52;5.25;;;;;;;;;;5007540;28;20042;-56
2021/12/02 06:08:32;;;;;;;10.77;5.35;;;;;;;;;;5006168;28;20115;-54
2021/12/02 06:10:58;;;;;;;12.68;6.55;;;;;;;;;;5008236;28;20263;-56
2021/12/02 06:13:25;;;;;;;12.77;6.13;;;;;;;;;;5007189;28;20068;-56
2021/12/02 06:15:52;;;;;;;13.75;5.90;;;;;;;;;;5007885;28;20116;-57
2021/12/02 06:18:18;;;;;;;14.02;6.22;;;;;;;;;;5007619;28;20117;-57
2021/12/02 06:20:47;;;;;;;9.43;5.50;;;;;;;;;;5006274;28;20036;-55
2021/12/02 06:23:13;;;;;;;10.68;5.68;;;;;;;;;;5006810;28;20052;-56
2021/12/02 06:28:05;;;;;;;9.23;5.97;;;;;;;;;;5006527;28;20046;-55
2021/12/02 06:30:32;;;;;;;10.45;5.45;;;;;;;;;;5005747;28;20502;-56
2021/12/02 06:32:58;;;;;;;11.95;6.53;;;;;;;;;;5007413;28;20534;-55
2021/12/02 06:35:24;;;;;;;13.30;5.78;;;;;;;;;;5006377;28;20048;-58
2021/12/02 06:37:49;;;;;;;12.60;4.95;;;;;;;;;;5006581;28;20053;-55
2021/12/02 06:40:16;;;;;;;10.02;4.47;;;;;;;;;;5006490;28;20033;-57
2021/12/02 06:42:42;;;;;;;7.90;4.32;;;;;;;;;;5005990;28;20045;-57
2021/12/02 06:45:11;;;;;;;9.13;4.30;;;;;;;;;;5007188;28;20045;-54
2021/12/02 06:47:41;;;;;;;8.55;4.32;;;;;;;;;;5006273;28;20033;-56
2021/12/02 06:50:18;;;;;;;9.10;4.50;;;;;;;;;;5006023;28;20081;-54
2021/12/02 06:52:48;;;;;;;10.93;4.55;;;;;;;;;;5006912;28;20038;-58
2021/12/02 06:55:14;;;;;;;9.50;5.00;;;;;;;;;;5008387;28;20076;-56
2021/12/02 06:57:40;;;;;;;8.00;4.20;;;;;;;;;;4974625;28;20069;-57
2021/12/02 07:00:08;;;;;;;6.55;3.47;;;;;;;;;;5007458;28;20045;-55
2021/12/02 07:02:35;;;;;;;8.48;4.30;;;;;;;;;;5006893;28;20714;-53
2021/12/02 07:05:01;;;;;;;8.43;4.28;;;;;;;;;;5006186;28;20041;-56
2021/12/02 07:07:31;;;;;;;10.88;4.90;;;;;;;;;;5005522;28;20107;-53
2021/12/02 07:09:59;;;;;;;9.73;5.05;;;;;;;;;;5004653;28;20521;-56
2021/12/02 07:12:30;;;;;;;7.85;4.38;;;;;;;;;;4989061;28;20128;-56
2021/12/02 07:14:58;;;;;;;7.88;4.60;;;;;;;;;;5009981;28;20049;-57
2021/12/02 07:17:24;;;;;;;8.18;4.75;;;;;;;;;;5010535;28;20037;-56
2021/12/02 07:19:50;;;;;;;8.45;4.78;;;;;;;;;;5011865;28;20454;-57
2021/12/02 07:22:16;;;;;;;10.00;5.10;;;;;;;;;;5011641;28;20259;-55
2021/12/02 07:24:42;;;;;;;10.60;4.88;;;;;;;;;;5012366;28;20045;-53
2021/12/02 07:27:07;;;;;;;10.68;5.68;;;;;;;;;;5012345;28;20094;-56
2021/12/02 07:29:34;;;;;;;11.73;5.35;;;;;;;;;;5010091;28;20037;-56
2021/12/02 07:32:03;;;;;;;10.57;5.00;;;;;;;;;;5011193;28;20183;-55
2021/12/02 07:34:32;;;;;;;8.00;4.40;;;;;;;;;;5013181;28;20051;-56
2021/12/02 07:36:58;;;;;;;11.10;5.10;;;;;;;;;;5011903;28;20042;-55
2021/12/02 07:39:25;;;;;;;9.10;5.38;;;;;;;;;;5010502;28;20084;-54
2021/12/02 07:41:51;;;;;;;10.43;5.45;;;;;;;;;;5011779;28;20087;-56
2021/12/02 07:44:17;;;;;;;8.65;4.32;;;;;;;;;;5009673;28;20121;-56
2021/12/02 07:46:43;;;;;;;7.03;4.13;;;;;;;;;;5009897;28;20392;-56
2021/12/02 07:49:12;;;;;;;6.72;3.80;;;;;;;;;;5010885;28;20098;-55
2021/12/02 07:51:38;;;;;;;7.43;3.67;;;;;;;;;;5009380;28;20097;-57
2021/12/02 07:54:04;;;;;;;8.23;4.22;;;;;;;;;;5010368;28;20048;-57
2021/12/02 07:56:33;;;;;;;8.38;4.03;;;;;;;;;;5007245;28;20041;-57
2021/12/02 07:58:59;;;;;;;6.93;3.50;;;;;;;;;;5009662;28;20719;-56
2021/12/02 08:01:25;;;;;;;6.75;3.75;;;;;;;;;;5009892;28;20041;-56
2021/12/02 08:03:51;;;;;;;6.63;3.22;;;;;;;;;;5010502;28;20038;-56
2021/12/02 08:06:17;;;;;;;6.05;2.95;;;;;;;;;;5010749;28;20049;-56
2021/12/02 08:08:45;;;;;;;5.25;2.80;;;;;;;;;;5009438;28;20084;-52
2021/12/02 08:11:11;;;;;;;6.45;3.08;;;;;;;;;;5009645;28;20091;-56
2021/12/02 08:13:38;;;;;;;5.63;2.95;;;;;;;;;;5007442;28;20542;-56
2021/12/02 08:16:05;;;;;;;5.30;2.53;;;;;;;;;;5009521;28;20040;-56
2021/12/02 08:18:32;;;;;;;5.60;2.90;;;;;;;;;;5010830;28;20092;-55
2021/12/02 08:20:59;;;;;;;5.75;2.50;;;;;;;;;;5010407;28;20037;-57
2021/12/02 08:23:25;;;;;;;4.68;2.60;;;;;;;;;;5008352;28;20083;-56
2021/12/02 08:25:51;;;;;;;5.03;2.70;;;;;;;;;;5007752;28;20147;-56
2021/12/02 08:28:16;;;;;;;5.97;2.92;;;;;;;;;;5008392;28;20091;-56
2021/12/02 08:30:43;;;;;;;4.88;2.50;;;;;;;;;;5006749;28;20049;-55
2021/12/02 08:33:10;;;;;;;5.15;2.75;;;;;;;;;;5007572;28;20554;-57
2021/12/02 08:35:36;;;;;;;5.47;2.75;;;;;;;;;;5008716;28;20038;-56
2021/12/02 08:38:08;;;;;;;5.28;2.80;;;;;;;;;;5008646;28;20033;-55
2021/12/02 08:40:36;;;;;;;5.25;2.47;;;;;;;;;;5007815;28;20085;-57
2021/12/02 08:43:03;;;;;;;5.60;2.78;;;;;;;;;;5008391;28;20033;-57
2021/12/02 08:45:29;;;;;;;4.90;2.58;;;;;;;;;;5008179;28;20037;-56
2021/12/02 08:47:56;;;;;;;5.20;2.67;;;;;;;;;;5008750;28;20046;-56
2021/12/02 08:50:22;;;;;;;4.72;2.33;;;;;;;;;;5007777;28;20033;-56
2021/12/02 08:52:49;;;;;;;5.30;2.38;;;;;;;;;;5006675;28;20454;-56
2021/12/02 08:55:15;;;;;;;5.00;2.33;;;;;;;;;;5008542;28;20084;-57
2021/12/02 08:57:41;;;;;;;4.03;2.00;;;;;;;;;;5008463;28;20103;-57
2021/12/02 09:00:09;;;;;;;3.83;2.00;;;;;;;;;;5007006;28;20041;-57
2021/12/02 09:02:35;;;;;;;6.68;1.90;;;;;;;;;;4990248;28;20123;-56
2021/12/02 09:05:01;;;;;;;4.10;2.05;;;;;;;;;;5007228;28;20056;-55
2021/12/02 09:07:27;;;;;;;4.03;2.10;;;;;;;;;;5005787;28;20045;-57
2021/12/02 09:09:53;;;;;;;4.40;2.00;;;;;;;;;;5007281;28;20095;-57
2021/12/02 09:12:19;;;;;;;5.60;2.50;;;;;;;;;;5007161;28;20057;-55
2021/12/02 09:14:44;;;;;;;4.10;2.15;;;;;;;;;;5007183;28;20997;-57
2021/12/02 09:17:10;;;;;;;3.42;1.80;;;;;;;;;;5008062;28;20477;-55
2021/12/02 09:19:36;;;;;;;4.70;2.22;;;;;;;;;;5006252;28;20473;-57
2021/12/02 09:22:03;;;;;;;4.30;1.98;;;;;;;;;;5008034;28;20047;-57
2021/12/02 09:24:29;;;;;;;4.45;2.30;;;;;;;;;;5007359;28;20042;-56
2021/12/02 09:26:55;;;;;;;3.95;2.00;;;;;;;;;;5007776;28;20053;-56
2021/12/02 09:29:22;;;;;;;4.38;2.00;;;;;;;;;;5007363;28;20064;-57
2021/12/02 09:31:49;;;;;;;4.13;2.00;;;;;;;;;;5007413;28;20120;-56
2021/12/02 09:34:15;;;;;;;4.82;2.55;;;;;;;;;;5007698;28;20053;-56
2021/12/02 09:36:42;;;;;;;4.07;2.22;;;;;;;;;;5006443;28;20044;-56
2021/12/02 09:39:11;;;;;;;5.18;2.50;;;;;;;;;;5007674;28;20125;-57
2021/12/02 09:41:37;;;;;;;4.82;2.55;;;;;;;;;;5007523;28;20096;-57
2021/12/02 09:44:04;;;;;;;4.35;2.45;;;;;;;;;;5008386;28;20105;-55
2021/12/02 09:46:30;;;;;;;4.82;2.33;;;;;;;;;;5005129;28;20053;-54
2021/12/02 09:48:57;;;;;;;4.93;2.50;;;;;;;;;;5008675;28;20041;-56
2021/12/02 09:51:26;;;;;;;4.03;2.10;;;;;;;;;;5006668;28;20125;-55
2021/12/02 09:54:08;;;;;;;4.30;2.33;;;;;;;;;;5007994;28;20054;-56
2021/12/02 09:56:36;;;;;;;3.53;2.08;;;;;;;;;;5005850;28;20057;-56
2021/12/02 09:59:10;;;;;;;3.90;2.20;;;;;;;;;;5007999;28;20046;-55
2021/12/02 10:04:06;;;;;;;5.82;2.80;;;;;;;;;;5009156;28;20084;-57
2021/12/02 10:06:33;;;;;;;5.00;2.60;;;;;;;;;;4988639;28;20041;-56
2021/12/02 10:09:38;;;;;;;3.90;2.30;;;;;;;;;;5008260;28;20069;-53
2021/12/02 10:12:13;;;;;;;4.18;2.25;;;;;;;;;;5007228;28;20083;-56
2021/12/02 10:14:42;;;;;;;4.18;2.20;;;;;;;;;;5005964;28;20510;-55
2021/12/02 10:17:12;;;;;;;5.05;2.50;;;;;;;;;;5008064;28;20042;-56
2021/12/02 10:19:57;;;;;;;4.38;2.53;;;;;;;;;;5006055;28;20491;-55
2021/12/02 10:22:23;;;;;;;4.55;2.40;;;;;;;;;;5006576;28;20036;-54
2021/12/02 10:24:50;;;;;;;4.43;2.10;;;;;;;;;;5005895;28;20829;-55
2021/12/02 10:27:16;;;;;;;5.15;2.28;;;;;;;;;;4989288;28;21349;-56
2021/12/02 10:29:46;;;;;;;5.18;2.28;;;;;;;;;;5005571;28;20037;-56
2021/12/02 10:32:21;;;;;;;4.65;2.35;;;;;;;;;;5007129;28;20056;-56
2021/12/02 10:34:52;;;;;;;3.92;1.90;;;;;;;;;;5007030;28;20041;-57
2021/12/02 10:37:19;;;;;;;4.18;2.22;;;;;;;;;;5005659;28;20056;-55
2021/12/02 10:39:57;;;;;;;5.80;2.78;;;;;;;;;;5007387;28;20029;-55
2021/12/02 10:42:23;;;;;;;5.20;2.60;;;;;;;;;;5006877;28;20070;-57
2021/12/02 10:44:50;;;;;;;4.53;2.10;;;;;;;;;;5006148;28;20042;-56
2021/12/02 10:47:16;;;;;;;4.18;2.08;;;;;;;;;;5007801;28;20042;-55
2021/12/02 10:49:44;;;;;;;4.85;2.35;;;;;;;;;;5008934;28;20596;-56
2021/12/02 10:52:14;;;;;;;4.95;2.20;;;;;;;;;;5011192;28;20676;-55
2021/12/02 10:54:41;;;;;;;3.72;1.88;;;;;;;;;;5012168;28;20040;-56
2021/12/02 10:57:12;;;;;;;4.47;2.22;;;;;;;;;;4995617;28;20090;-57
2021/12/02 10:59:40;;;;;;;4.03;2.05;;;;;;;;;;5010724;28;20053;-56
2021/12/02 11:02:18;;;;;;;6.32;2.40;;;;;;;;;;5011444;28;20088;-53
2021/12/02 11:04:46;;;;;;;5.28;2.35;;;;;;;;;;5005930;28;20034;-56
2021/12/02 11:07:19;;;;;;;6.30;2.50;;;;;;;;;;5009898;28;20041;-56
2021/12/02 11:09:45;;;;;;;5.07;2.20;;;;;;;;;;4991415;28;20065;-56
2021/12/02 11:12:20;;;;;;;4.90;2.38;;;;;;;;;;5011805;28;20117;-56
2021/12/02 11:14:55;;;;;;;4.13;2.25;;;;;;;;;;5009940;28;20049;-57
2021/12/02 11:17:22;;;;;;;7.32;2.40;;;;;;;;;;5010650;28;20148;-55
2021/12/02 11:19:49;;;;;;;4.53;2.10;;;;;;;;;;5010198;28;20042;-54
2021/12/02 11:22:19;;;;;;;5.65;2.38;;;;;;;;;;5010848;28;20041;-56
2021/12/02 11:24:45;;;;;;;4.30;2.20;;;;;;;;;;5011032;28;20052;-54
2021/12/02 11:27:23;;;;;;;3.95;2.00;;;;;;;;;;5007945;28;20068;-54
2021/12/02 11:30:05;;;;;;;4.50;2.65;;;;;;;;;;5008149;28;20414;-55
2021/12/02 11:32:46;;;;;;;5.00;2.38;;;;;;;;;;5010291;28;20930;-56
2021/12/02 11:35:16;;;;;;;4.75;2.22;;;;;;;;;;5011496;28;20053;-57
2021/12/02 11:37:47;;;;;;;4.85;2.60;;;;;;;;;;5011541;28;20033;-53
2021/12/02 11:40:18;;;;;;;5.20;2.65;;;;;;;;;;5013331;28;20041;-57
2021/12/02 11:42:44;;;;;;;5.68;2.70;;;;;;;;;;5012233;28;20042;-57
2021/12/02 11:45:11;;;;;;;4.30;2.45;;;;;;;;;;5012500;28;20052;-55
2021/12/02 11:47:38;;;;;;;4.85;2.65;;;;;;;;;;5010862;28;20034;-57
2021/12/02 11:50:05;;;;;;;8.15;2.80;;;;;;;;;;5010063;28;20041;-56
2021/12/02 11:52:31;;;;;;;5.63;2.72;;;;;;;;;;5008791;28;20119;-55
2021/12/02 11:54:59;;;;;;;6.18;2.83;;;;;;;;;;5009228;28;20503;-55
2021/12/02 11:57:26;;;;;;;5.65;3.13;;;;;;;;;;5008452;28;20104;-56
2021/12/02 11:59:52;;;;;;;5.82;3.38;;;;;;;;;;5009803;28;20180;-54
2021/12/02 12:02:18;;;;;;;6.03;3.47;;;;;;;;;;5009963;28;20038;-54
2021/12/02 12:05:01;;;;;;;5.90;2.92;;;;;;;;;;5008760;28;20565;-57
2021/12/02 12:07:46;;;;;;;6.32;3.53;;;;;;;;;;5009493;28;20050;-54
2021/12/02 12:10:13;;;;;;;5.85;3.50;;;;;;;;;;5006016;28;20042;-56
2021/12/02 12:12:42;;;;;;;5.15;3.38;;;;;;;;;;5007341;28;20490;-56
2021/12/02 12:15:28;;;;;;;6.45;3.35;;;;;;;;;;5009295;28;20741;-55
2021/12/02 12:17:54;;;;;;;8.07;3.33;;;;;;;;;;5009524;28;20065;-54
2021/12/02 12:20:20;;;;;;;5.95;3.45;;;;;;;;;;5008185;28;20656;-54
2021/12/02 12:22:46;;;;;;;6.05;3.33;;;;;;;;;;5008685;28;20050;-56
2021/12/02 12:25:28;;;;;;;6.18;3.40;;;;;;;;;;5009235;28;20041;-57
2021/12/02 12:27:57;;;;;;;7.75;4.10;;;;;;;;;;5008799;28;20110;-56
2021/12/02 12:30:24;;;;;;;6.85;4.15;;;;;;;;;;5006932;28;20034;-57
2021/12/02 12:33:04;;;;;;;7.22;4.43;;;;;;;;;;5009985;28;20550;-55
2021/12/02 12:38:22;;;;;;;7.30;4.97;;;;;;;;;;5010442;28;20087;-52
2021/12/02 12:40:49;;;;;;;9.93;5.10;;;;;;;;;;5009800;28;20029;-56
2021/12/02 12:43:17;;;;;;;8.48;6.13;;;;;;;;;;5009661;28;20041;-57
2021/12/02 12:45:44;;;;;;;11.00;6.35;;;;;;;;;;5007297;28;20085;-57
2021/12/02 12:48:19;;;;;;;11.70;8.00;;;;;;;;;;5010373;28;20037;-57
2021/12/02 12:50:46;;;;;;;16.42;9.23;;;;;;;;;;5007808;28;20041;-55
2021/12/02 12:53:18;;;;;;;23.92;10.73;;;;;;;;;;5007755;28;20046;-55
2021/12/02 12:55:53;;;;;;;17.05;10.95;;;;;;;;;;5006771;28;20048;-57
2021/12/02 12:58:20;;;;;;;24.20;12.05;;;;;;;;;;5006725;28;20044;-57
2021/12/02 13:00:47;;;;;;;17.67;11.35;;;;;;;;;;5008726;28;20084;-57
2021/12/02 13:03:16;;;;;;;15.82;9.98;;;;;;;;;;5006791;28;20049;-56
2021/12/02 13:05:46;;;;;;;18.45;10.90;;;;;;;;;;5005457;28;20037;-57
2021/12/02 13:08:16;;;;;;;17.75;11.43;;;;;;;;;;5006790;28;20101;-56
2021/12/02 13:11:02;;;;;;;22.77;12.95;;;;;;;;;;5006377;28;20116;-55
2021/12/02 13:13:33;;;;;;;26.95;14.18;;;;;;;;;;5007422;28;20054;-57
2021/12/02 13:16:31;;;;;;;29.83;15.30;;;;;;;;;;5006864;28;20045;-57
2021/12/02 13:18:59;;;;;;;34.03;16.45;;;;;;;;;;4988245;28;20073;-55
2021/12/02 13:21:31;;;;;;;27.42;16.58;;;;;;;;;;5005849;28;20049;-57
2021/12/02 13:23:59;;;;;;;32.00;16.92;;;;;;;;;;5007544;28;20467;-57
2021/12/02 13:26:29;;;;;;;24.88;16.38;;;;;;;;;;5006714;28;20056;-55
2021/12/02 13:28:56;;;;;;;25.80;16.08;;;;;;;;;;5008128;28;20046;-56
2021/12/02 13:31:23;;;;;;;27.40;17.88;;;;;;;;;;5006568;28;20574;-56
2021/12/02 13:34:00;;;;;;;26.42;15.30;;;;;;;;;;5007569;28;20069;-56
2021/12/02 13:36:34;;;;;;;21.75;13.15;;;;;;;;;;5005150;28;20092;-57
2021/12/02 13:39:06;;;;;;;22.48;13.10;;;;;;;;;;5009222;28;20042;-56
2021/12/02 13:41:42;;;;;;;16.75;10.52;;;;;;;;;;5006080;28;20037;-53
2021/12/02 13:44:13;;;;;;;17.83;10.63;;;;;;;;;;5007580;28;20045;-57
2021/12/02 13:46:41;;;;;;;14.43;9.38;;;;;;;;;;5005156;28;20108;-55
2021/12/02 13:49:12;;;;;;;15.07;9.80;;;;;;;;;;5007526;28;20041;-56
2021/12/02 13:54:24;;;;;;;12.77;8.48;;;;;;;;;;5006018;28;20239;-57
2021/12/02 13:56:50;;;;;;;13.85;8.98;;;;;;;;;;5007087;28;20045;-57
2021/12/02 13:59:22;;;;;;;14.73;8.98;;;;;;;;;;5006628;28;21028;-57
2021/12/02 14:01:49;;;;;;;15.75;9.63;;;;;;;;;;5005956;28;20045;-55
2021/12/02 14:04:15;;;;;;;19.35;9.80;;;;;;;;;;5007537;28;20042;-56
2021/12/02 14:06:41;;;;;;;13.52;10.07;;;;;;;;;;5005281;28;20045;-56
2021/12/02 14:09:17;;;;;;;16.08;9.98;;;;;;;;;;5006460;28;20041;-55
2021/12/02 14:11:46;;;;;;;16.92;9.55;;;;;;;;;;5006502;28;20038;-56
2021/12/02 14:14:18;;;;;;;20.60;9.88;;;;;;;;;;5006360;28;20462;-56
2021/12/02 14:16:44;;;;;;;13.48;7.53;;;;;;;;;;5005463;28;20103;-56
2021/12/02 14:19:11;;;;;;;19.35;9.90;;;;;;;;;;5006566;28;20125;-57
2021/12/02 14:21:36;;;;;;;16.60;10.32;;;;;;;;;;5005867;28;20057;-57
2021/12/02 14:24:03;;;;;;;17.65;10.05;;;;;;;;;;4990593;28;20109;-56
2021/12/02 14:26:29;;;;;;;15.40;9.82;;;;;;;;;;5009195;28;20152;-56
2021/12/02 14:28:56;;;;;;;15.02;9.52;;;;;;;;;;5010629;28;20057;-56
2021/12/02 14:31:33;;;;;;;13.48;8.23;;;;;;;;;;5007638;28;20043;-54
2021/12/02 14:34:01;;;;;;;13.07;8.38;;;;;;;;;;5010535;28;20062;-57
2021/12/02 14:36:28;;;;;;;12.90;7.78;;;;;;;;;;5000876;28;20075;-56
2021/12/02 14:39:02;;;;;;;12.65;6.97;;;;;;;;;;5009810;28;20037;-55
2021/12/02 14:41:29;;;;;;;16.25;6.53;;;;;;;;;;5011525;28;20045;-56
2021/12/02 14:43:57;;;;;;;9.23;6.30;;;;;;;;;;5011158;28;20049;-53
2021/12/02 14:46:33;;;;;;;10.32;6.43;;;;;;;;;;5010979;28;20042;-53
2021/12/02 14:49:17;;;;;;;9.55;6.25;;;;;;;;;;5011528;28;20133;-56
2021/12/02 14:51:43;;;;;;;9.82;5.68;;;;;;;;;;5009313;28;20526;-56
2021/12/02 14:54:09;;;;;;;10.95;6.32;;;;;;;;;;5010577;28;20045;-57
2021/12/02 14:56:36;;;;;;;11.55;6.97;;;;;;;;;;5009692;28;20034;-56
2021/12/02 14:59:06;;;;;;;11.35;6.88;;;;;;;;;;5010476;28;21842;-57
2021/12/02 15:01:31;;;;;;;10.02;6.63;;;;;;;;;;5007230;28;20133;-57
2021/12/02 15:03:57;;;;;;;9.27;6.18;;;;;;;;;;5010755;28;20200;-56
2021/12/02 15:06:36;;;;;;;10.15;6.15;;;;;;;;;;5008216;28;20037;-56
2021/12/02 15:09:02;;;;;;;7.75;5.38;;;;;;;;;;5009961;28;20088;-56
2021/12/02 15:11:32;;;;;;;9.45;5.35;;;;;;;;;;5009387;28;20057;-53
2021/12/02 15:13:58;;;;;;;9.52;6.10;;;;;;;;;;5010951;28;20057;-55